sensor_id;sensor_type;location;lat;lon;timestamp;P1;durP1;ratioP1;P2;durP2;ratioP2
41653;SDS011;30790;52.030;7.110;2022-10-17T00:01:09;4.43;;;1.98;;
41653;SDS011;30790;52.030;7.110;2022-10-17T00:03:36;3.92;;;1.65;;
41653;SDS011;30790;52.030;7.110;2022-10-17T00:06:06;5.32;;;1.90;;
41653;SDS011;30790;52.030;7.110;2022-10-17T00:08:34;4.22;;;1.95;;
41653;SDS011;30790;52.030;7.110;2022-10-17T00:11:01;4.38;;;1.88;;
41653;SDS011;30790;52.030;7.110;2022-10-17T00:13:29;2.28;;;1.58;;
41653;SDS011;30790;52.030;7.110;2022-10-17T00:15:55;3.95;;;2.10;;
41653;SDS011;30790;52.030;7.110;2022-10-17T00:18:22;4.13;;;1.70;;
41653;SDS011;30790;52.030;7.110;2022-10-17T00:20:47;3.80;;;1.88;;
41653;SDS011;30790;52.030;7.110;2022-10-17T00:23:13;3.42;;;1.73;;
41653;SDS011;30790;52.030;7.110;2022-10-17T00:25:38;3.83;;;1.73;;
41653;SDS011;30790;52.030;7.110;2022-10-17T00:28:04;5.97;;;1.70;;
41653;SDS011;30790;52.030;7.110;2022-10-17T00:30:30;2.28;;;1.80;;
41653;SDS011;30790;52.030;7.110;2022-10-17T00:32:56;3.10;;;1.60;;
41653;SDS011;30790;52.030;7.110;2022-10-17T00:35:22;4.43;;;1.75;;
41653;SDS011;30790;52.030;7.110;2022-10-17T00:37:47;3.53;;;1.67;;
41653;SDS011;30790;52.030;7.110;2022-10-17T00:40:12;3.42;;;1.58;;
41653;SDS011;30790;52.030;7.110;2022-10-17T00:42:37;5.85;;;1.85;;
41653;SDS011;30790;52.030;7.110;2022-10-17T00:45:14;4.28;;;1.80;;
41653;SDS011;30790;52.030;7.110;2022-10-17T00:47:46;3.95;;;1.80;;
41653;SDS011;30790;52.030;7.110;2022-10-17T00:50:15;3.80;;;1.60;;
41653;SDS011;30790;52.030;7.110;2022-10-17T00:52:40;4.93;;;1.98;;
41653;SDS011;30790;52.030;7.110;2022-10-17T00:57:36;2.58;;;1.40;;
41653;SDS011;30790;52.030;7.110;2022-10-17T01:00:05;3.10;;;1.80;;
41653;SDS011;30790;52.030;7.110;2022-10-17T01:02:32;4.25;;;1.80;;
41653;SDS011;30790;52.030;7.110;2022-10-17T01:04:58;2.75;;;1.65;;
41653;SDS011;30790;52.030;7.110;2022-10-17T01:07:23;3.33;;;1.35;;
41653;SDS011;30790;52.030;7.110;2022-10-17T01:09:49;3.97;;;1.60;;
41653;SDS011;30790;52.030;7.110;2022-10-17T01:12:25;3.90;;;1.60;;
41653;SDS011;30790;52.030;7.110;2022-10-17T01:17:55;2.50;;;1.77;;
41653;SDS011;30790;52.030;7.110;2022-10-17T01:20:28;2.88;;;1.30;;
41653;SDS011;30790;52.030;7.110;2022-10-17T01:26:25;7.10;;;1.95;;
41653;SDS011;30790;52.030;7.110;2022-10-17T01:29:11;4.75;;;1.88;;
41653;SDS011;30790;52.030;7.110;2022-10-17T01:32:03;1.93;;;1.50;;
41653;SDS011;30790;52.030;7.110;2022-10-17T01:34:44;3.35;;;1.55;;
41653;SDS011;30790;52.030;7.110;2022-10-17T01:37:19;3.60;;;1.75;;
41653;SDS011;30790;52.030;7.110;2022-10-17T01:40:06;1.48;;;1.23;;
41653;SDS011;30790;52.030;7.110;2022-10-17T01:45:12;3.28;;;1.75;;
41653;SDS011;30790;52.030;7.110;2022-10-17T01:47:52;3.47;;;1.85;;
41653;SDS011;30790;52.030;7.110;2022-10-17T01:50:27;3.38;;;1.75;;
41653;SDS011;30790;52.030;7.110;2022-10-17T01:53:08;2.45;;;1.65;;
41653;SDS011;30790;52.030;7.110;2022-10-17T01:55:39;2.42;;;1.65;;
41653;SDS011;30790;52.030;7.110;2022-10-17T01:58:09;4.72;;;1.83;;
41653;SDS011;30790;52.030;7.110;2022-10-17T02:00:41;3.22;;;1.60;;
41653;SDS011;30790;52.030;7.110;2022-10-17T02:03:08;2.88;;;1.75;;
41653;SDS011;30790;52.030;7.110;2022-10-17T02:05:38;2.30;;;1.33;;
41653;SDS011;30790;52.030;7.110;2022-10-17T02:08:05;4.38;;;1.98;;
41653;SDS011;30790;52.030;7.110;2022-10-17T02:16:16;2.53;;;1.60;;
41653;SDS011;30790;52.030;7.110;2022-10-17T02:19:06;2.90;;;1.42;;
41653;SDS011;30790;52.030;7.110;2022-10-17T02:21:43;2.25;;;1.23;;
41653;SDS011;30790;52.030;7.110;2022-10-17T02:24:28;2.90;;;1.65;;
41653;SDS011;30790;52.030;7.110;2022-10-17T02:27:07;3.63;;;1.90;;
41653;SDS011;30790;52.030;7.110;2022-10-17T02:29:43;2.13;;;1.40;;
41653;SDS011;30790;52.030;7.110;2022-10-17T02:32:16;5.78;;;1.58;;
41653;SDS011;30790;52.030;7.110;2022-10-17T02:34:49;3.13;;;1.30;;
41653;SDS011;30790;52.030;7.110;2022-10-17T02:37:20;2.03;;;1.58;;
41653;SDS011;30790;52.030;7.110;2022-10-17T02:39:49;2.33;;;1.55;;
41653;SDS011;30790;52.030;7.110;2022-10-17T02:42:14;1.70;;;1.48;;
41653;SDS011;30790;52.030;7.110;2022-10-17T02:44:42;3.70;;;1.75;;
41653;SDS011;30790;52.030;7.110;2022-10-17T02:47:26;1.83;;;1.30;;
41653;SDS011;30790;52.030;7.110;2022-10-17T02:49:56;4.60;;;1.67;;
41653;SDS011;30790;52.030;7.110;2022-10-17T02:52:44;2.33;;;1.42;;
41653;SDS011;30790;52.030;7.110;2022-10-17T02:55:19;2.50;;;1.20;;
41653;SDS011;30790;52.030;7.110;2022-10-17T02:57:53;2.55;;;1.45;;
41653;SDS011;30790;52.030;7.110;2022-10-17T03:00:24;3.38;;;1.40;;
41653;SDS011;30790;52.030;7.110;2022-10-17T03:02:51;1.75;;;1.33;;
41653;SDS011;30790;52.030;7.110;2022-10-17T03:05:22;2.58;;;1.75;;
41653;SDS011;30790;52.030;7.110;2022-10-17T03:07:49;2.58;;;1.45;;
41653;SDS011;30790;52.030;7.110;2022-10-17T03:10:14;2.25;;;1.40;;
41653;SDS011;30790;52.030;7.110;2022-10-17T03:12:40;2.17;;;1.52;;
41653;SDS011;30790;52.030;7.110;2022-10-17T03:15:06;1.88;;;1.27;;
41653;SDS011;30790;52.030;7.110;2022-10-17T03:17:31;2.33;;;1.70;;
41653;SDS011;30790;52.030;7.110;2022-10-17T03:19:57;1.75;;;1.05;;
41653;SDS011;30790;52.030;7.110;2022-10-17T03:22:22;2.17;;;1.33;;
41653;SDS011;30790;52.030;7.110;2022-10-17T03:24:47;2.30;;;1.30;;
41653;SDS011;30790;52.030;7.110;2022-10-17T03:27:13;2.65;;;1.38;;
41653;SDS011;30790;52.030;7.110;2022-10-17T03:29:38;2.45;;;1.60;;
41653;SDS011;30790;52.030;7.110;2022-10-17T03:32:03;1.52;;;1.17;;
41653;SDS011;30790;52.030;7.110;2022-10-17T03:34:29;1.45;;;1.20;;
41653;SDS011;30790;52.030;7.110;2022-10-17T03:36:54;1.90;;;1.58;;
41653;SDS011;30790;52.030;7.110;2022-10-17T03:39:19;2.80;;;1.27;;
41653;SDS011;30790;52.030;7.110;2022-10-17T03:41:45;2.80;;;1.33;;
41653;SDS011;30790;52.030;7.110;2022-10-17T03:44:10;1.83;;;1.10;;
41653;SDS011;30790;52.030;7.110;2022-10-17T03:46:36;2.83;;;1.40;;
41653;SDS011;30790;52.030;7.110;2022-10-17T03:49:01;1.55;;;1.20;;
41653;SDS011;30790;52.030;7.110;2022-10-17T03:51:26;2.10;;;1.42;;
41653;SDS011;30790;52.030;7.110;2022-10-17T03:53:51;2.67;;;1.52;;
41653;SDS011;30790;52.030;7.110;2022-10-17T03:56:18;1.55;;;1.38;;
41653;SDS011;30790;52.030;7.110;2022-10-17T03:58:45;1.40;;;1.10;;
41653;SDS011;30790;52.030;7.110;2022-10-17T04:01:12;2.08;;;1.42;;
41653;SDS011;30790;52.030;7.110;2022-10-17T04:03:38;4.82;;;1.40;;
41653;SDS011;30790;52.030;7.110;2022-10-17T04:06:05;1.65;;;1.23;;
41653;SDS011;30790;52.030;7.110;2022-10-17T04:08:32;3.95;;;1.50;;
41653;SDS011;30790;52.030;7.110;2022-10-17T04:10:58;1.98;;;1.30;;
41653;SDS011;30790;52.030;7.110;2022-10-17T04:13:25;2.00;;;1.70;;
41653;SDS011;30790;52.030;7.110;2022-10-17T04:15:54;1.60;;;1.30;;
41653;SDS011;30790;52.030;7.110;2022-10-17T04:18:24;2.03;;;1.40;;
41653;SDS011;30790;52.030;7.110;2022-10-17T04:20:49;1.25;;;1.08;;
41653;SDS011;30790;52.030;7.110;2022-10-17T04:23:15;2.00;;;1.40;;
41653;SDS011;30790;52.030;7.110;2022-10-17T04:25:40;2.53;;;1.42;;
41653;SDS011;30790;52.030;7.110;2022-10-17T04:28:05;3.20;;;1.30;;
41653;SDS011;30790;52.030;7.110;2022-10-17T04:30:31;1.50;;;1.20;;
41653;SDS011;30790;52.030;7.110;2022-10-17T04:32:56;1.73;;;1.40;;
41653;SDS011;30790;52.030;7.110;2022-10-17T04:35:21;2.55;;;1.33;;
41653;SDS011;30790;52.030;7.110;2022-10-17T04:37:46;6.22;;;1.25;;
41653;SDS011;30790;52.030;7.110;2022-10-17T04:40:12;2.85;;;1.20;;
41653;SDS011;30790;52.030;7.110;2022-10-17T04:42:37;3.33;;;1.38;;
41653;SDS011;30790;52.030;7.110;2022-10-17T04:45:03;2.40;;;1.50;;
41653;SDS011;30790;52.030;7.110;2022-10-17T04:47:28;3.50;;;1.38;;
41653;SDS011;30790;52.030;7.110;2022-10-17T04:49:54;2.55;;;1.50;;
41653;SDS011;30790;52.030;7.110;2022-10-17T04:52:19;3.85;;;1.77;;
41653;SDS011;30790;52.030;7.110;2022-10-17T04:54:44;4.03;;;1.85;;
41653;SDS011;30790;52.030;7.110;2022-10-17T04:57:10;3.13;;;1.40;;
41653;SDS011;30790;52.030;7.110;2022-10-17T04:59:35;6.60;;;1.40;;
41653;SDS011;30790;52.030;7.110;2022-10-17T05:02:00;6.97;;;1.40;;
41653;SDS011;30790;52.030;7.110;2022-10-17T05:04:25;8.20;;;1.52;;
41653;SDS011;30790;52.030;7.110;2022-10-17T05:06:51;4.93;;;1.35;;
41653;SDS011;30790;52.030;7.110;2022-10-17T05:09:16;8.55;;;1.90;;
41653;SDS011;30790;52.030;7.110;2022-10-17T05:11:42;3.22;;;1.30;;
41653;SDS011;30790;52.030;7.110;2022-10-17T05:14:07;2.38;;;1.52;;
41653;SDS011;30790;52.030;7.110;2022-10-17T05:16:33;3.80;;;1.27;;
41653;SDS011;30790;52.030;7.110;2022-10-17T05:18:59;4.38;;;1.85;;
41653;SDS011;30790;52.030;7.110;2022-10-17T05:21:25;2.35;;;1.40;;
41653;SDS011;30790;52.030;7.110;2022-10-17T05:23:52;7.30;;;1.45;;
41653;SDS011;30790;52.030;7.110;2022-10-17T05:26:18;3.15;;;1.83;;
41653;SDS011;30790;52.030;7.110;2022-10-17T05:28:43;2.65;;;1.20;;
41653;SDS011;30790;52.030;7.110;2022-10-17T05:31:09;1.67;;;1.40;;
41653;SDS011;30790;52.030;7.110;2022-10-17T05:33:36;6.72;;;1.63;;
41653;SDS011;30790;52.030;7.110;2022-10-17T05:36:02;4.35;;;1.30;;
41653;SDS011;30790;52.030;7.110;2022-10-17T05:38:27;8.18;;;1.70;;
41653;SDS011;30790;52.030;7.110;2022-10-17T05:40:59;6.50;;;2.22;;
41653;SDS011;30790;52.030;7.110;2022-10-17T05:43:26;3.58;;;1.40;;
41653;SDS011;30790;52.030;7.110;2022-10-17T05:45:53;2.15;;;1.50;;
41653;SDS011;30790;52.030;7.110;2022-10-17T05:48:19;2.50;;;1.60;;
41653;SDS011;30790;52.030;7.110;2022-10-17T05:50:45;2.67;;;1.50;;
41653;SDS011;30790;52.030;7.110;2022-10-17T05:53:11;1.67;;;1.17;;
41653;SDS011;30790;52.030;7.110;2022-10-17T05:55:36;3.80;;;1.30;;
41653;SDS011;30790;52.030;7.110;2022-10-17T05:58:02;4.07;;;1.40;;
41653;SDS011;30790;52.030;7.110;2022-10-17T06:00:27;1.52;;;1.40;;
41653;SDS011;30790;52.030;7.110;2022-10-17T06:02:52;3.72;;;1.52;;
41653;SDS011;30790;52.030;7.110;2022-10-17T06:05:19;3.80;;;1.58;;
41653;SDS011;30790;52.030;7.110;2022-10-17T06:07:45;6.57;;;1.42;;
41653;SDS011;30790;52.030;7.110;2022-10-17T06:10:12;4.78;;;1.60;;
41653;SDS011;30790;52.030;7.110;2022-10-17T06:12:39;4.13;;;1.42;;
41653;SDS011;30790;52.030;7.110;2022-10-17T06:15:04;3.22;;;1.40;;
41653;SDS011;30790;52.030;7.110;2022-10-17T06:17:30;6.40;;;2.40;;
41653;SDS011;30790;52.030;7.110;2022-10-17T06:19:56;5.88;;;1.90;;
41653;SDS011;30790;52.030;7.110;2022-10-17T06:22:21;11.40;;;2.15;;
41653;SDS011;30790;52.030;7.110;2022-10-17T06:24:47;6.70;;;2.45;;
41653;SDS011;30790;52.030;7.110;2022-10-17T06:27:12;5.35;;;2.75;;
41653;SDS011;30790;52.030;7.110;2022-10-17T06:29:37;6.88;;;2.33;;
41653;SDS011;30790;52.030;7.110;2022-10-17T06:32:03;9.32;;;2.55;;
41653;SDS011;30790;52.030;7.110;2022-10-17T06:34:29;10.23;;;2.50;;
41653;SDS011;30790;52.030;7.110;2022-10-17T06:36:54;11.70;;;2.50;;
41653;SDS011;30790;52.030;7.110;2022-10-17T06:39:19;17.40;;;2.92;;
41653;SDS011;30790;52.030;7.110;2022-10-17T06:41:44;13.07;;;2.55;;
41653;SDS011;30790;52.030;7.110;2022-10-17T06:44:10;17.93;;;3.63;;
41653;SDS011;30790;52.030;7.110;2022-10-17T06:46:37;9.50;;;2.47;;
41653;SDS011;30790;52.030;7.110;2022-10-17T06:49:03;6.93;;;2.63;;
41653;SDS011;30790;52.030;7.110;2022-10-17T06:51:29;6.90;;;2.33;;
41653;SDS011;30790;52.030;7.110;2022-10-17T06:53:56;5.40;;;2.47;;
41653;SDS011;30790;52.030;7.110;2022-10-17T06:56:22;11.77;;;3.08;;
41653;SDS011;30790;52.030;7.110;2022-10-17T06:58:48;8.13;;;2.40;;
41653;SDS011;30790;52.030;7.110;2022-10-17T07:01:15;10.98;;;2.95;;
41653;SDS011;30790;52.030;7.110;2022-10-17T07:03:40;9.70;;;3.10;;
41653;SDS011;30790;52.030;7.110;2022-10-17T07:06:07;10.52;;;3.10;;
41653;SDS011;30790;52.030;7.110;2022-10-17T07:08:36;9.55;;;2.53;;
41653;SDS011;30790;52.030;7.110;2022-10-17T07:11:09;11.07;;;2.45;;
41653;SDS011;30790;52.030;7.110;2022-10-17T07:13:38;11.23;;;2.55;;
41653;SDS011;30790;52.030;7.110;2022-10-17T07:16:04;4.88;;;2.42;;
41653;SDS011;30790;52.030;7.110;2022-10-17T07:18:29;6.78;;;2.00;;
41653;SDS011;30790;52.030;7.110;2022-10-17T07:20:54;12.52;;;2.60;;
41653;SDS011;30790;52.030;7.110;2022-10-17T07:23:20;4.15;;;2.28;;
41653;SDS011;30790;52.030;7.110;2022-10-17T07:25:46;7.40;;;2.55;;
41653;SDS011;30790;52.030;7.110;2022-10-17T07:28:12;6.43;;;2.40;;
41653;SDS011;30790;52.030;7.110;2022-10-17T07:30:38;6.28;;;2.25;;
41653;SDS011;30790;52.030;7.110;2022-10-17T07:33:04;6.40;;;2.22;;
41653;SDS011;30790;52.030;7.110;2022-10-17T07:35:29;8.07;;;2.80;;
41653;SDS011;30790;52.030;7.110;2022-10-17T07:37:54;4.47;;;2.30;;
41653;SDS011;30790;52.030;7.110;2022-10-17T07:40:19;5.57;;;2.08;;
41653;SDS011;30790;52.030;7.110;2022-10-17T07:42:45;5.95;;;2.05;;
41653;SDS011;30790;52.030;7.110;2022-10-17T07:45:10;6.25;;;2.60;;
41653;SDS011;30790;52.030;7.110;2022-10-17T07:47:35;5.65;;;2.08;;
41653;SDS011;30790;52.030;7.110;2022-10-17T07:50:01;5.63;;;1.93;;
41653;SDS011;30790;52.030;7.110;2022-10-17T07:52:27;7.28;;;3.08;;
41653;SDS011;30790;52.030;7.110;2022-10-17T07:54:52;9.45;;;2.70;;
41653;SDS011;30790;52.030;7.110;2022-10-17T07:57:17;9.93;;;3.10;;
41653;SDS011;30790;52.030;7.110;2022-10-17T07:59:43;8.93;;;2.30;;
41653;SDS011;30790;52.030;7.110;2022-10-17T08:02:11;12.65;;;2.28;;
41653;SDS011;30790;52.030;7.110;2022-10-17T08:04:44;9.63;;;2.17;;
41653;SDS011;30790;52.030;7.110;2022-10-17T08:07:09;3.70;;;1.83;;
41653;SDS011;30790;52.030;7.110;2022-10-17T08:09:34;18.07;;;3.57;;
41653;SDS011;30790;52.030;7.110;2022-10-17T08:12:00;15.85;;;3.42;;
41653;SDS011;30790;52.030;7.110;2022-10-17T08:14:25;6.28;;;2.65;;
41653;SDS011;30790;52.030;7.110;2022-10-17T08:16:52;6.50;;;2.20;;
41653;SDS011;30790;52.030;7.110;2022-10-17T08:19:18;9.70;;;3.65;;
41653;SDS011;30790;52.030;7.110;2022-10-17T08:21:43;11.53;;;4.40;;
41653;SDS011;30790;52.030;7.110;2022-10-17T08:24:10;9.02;;;4.20;;
41653;SDS011;30790;52.030;7.110;2022-10-17T08:26:36;7.45;;;4.60;;
41653;SDS011;30790;52.030;7.110;2022-10-17T08:29:01;9.83;;;4.87;;
41653;SDS011;30790;52.030;7.110;2022-10-17T08:31:26;8.18;;;5.30;;
41653;SDS011;30790;52.030;7.110;2022-10-17T08:33:52;10.82;;;4.63;;
41653;SDS011;30790;52.030;7.110;2022-10-17T08:36:18;11.68;;;5.50;;
41653;SDS011;30790;52.030;7.110;2022-10-17T08:38:44;6.53;;;4.95;;
41653;SDS011;30790;52.030;7.110;2022-10-17T08:46:46;11.35;;;5.13;;
41653;SDS011;30790;52.030;7.110;2022-10-17T08:49:31;15.43;;;4.75;;
41653;SDS011;30790;52.030;7.110;2022-10-17T08:52:01;11.52;;;4.55;;
41653;SDS011;30790;52.030;7.110;2022-10-17T08:54:37;12.07;;;4.40;;
41653;SDS011;30790;52.030;7.110;2022-10-17T08:57:08;11.23;;;4.68;;
41653;SDS011;30790;52.030;7.110;2022-10-17T08:59:36;13.63;;;4.63;;
41653;SDS011;30790;52.030;7.110;2022-10-17T09:08:01;11.25;;;4.38;;
41653;SDS011;30790;52.030;7.110;2022-10-17T09:16:07;6.93;;;4.30;;
41653;SDS011;30790;52.030;7.110;2022-10-17T09:18:44;7.53;;;3.80;;
41653;SDS011;30790;52.030;7.110;2022-10-17T09:21:16;12.20;;;3.83;;
41653;SDS011;30790;52.030;7.110;2022-10-17T09:26:12;4.15;;;3.22;;
41653;SDS011;30790;52.030;7.110;2022-10-17T09:28:40;4.25;;;3.78;;
41653;SDS011;30790;52.030;7.110;2022-10-17T09:33:47;6.85;;;3.63;;
41653;SDS011;30790;52.030;7.110;2022-10-17T09:36:16;8.02;;;3.90;;
41653;SDS011;30790;52.030;7.110;2022-10-17T09:38:47;11.38;;;3.58;;
41653;SDS011;30790;52.030;7.110;2022-10-17T09:41:16;8.55;;;3.13;;
41653;SDS011;30790;52.030;7.110;2022-10-17T09:43:44;14.50;;;4.47;;
41653;SDS011;30790;52.030;7.110;2022-10-17T09:46:22;5.82;;;3.60;;
41653;SDS011;30790;52.030;7.110;2022-10-17T09:51:25;27.45;;;4.97;;
41653;SDS011;30790;52.030;7.110;2022-10-17T09:53:55;13.05;;;3.80;;
41653;SDS011;30790;52.030;7.110;2022-10-17T09:56:25;12.48;;;4.10;;
41653;SDS011;30790;52.030;7.110;2022-10-17T09:58:57;22.33;;;4.40;;
41653;SDS011;30790;52.030;7.110;2022-10-17T10:06:34;9.68;;;3.47;;
41653;SDS011;30790;52.030;7.110;2022-10-17T10:09:00;13.15;;;4.15;;
41653;SDS011;30790;52.030;7.110;2022-10-17T10:11:49;14.73;;;3.58;;
41653;SDS011;30790;52.030;7.110;2022-10-17T10:16:46;9.55;;;3.30;;
41653;SDS011;30790;52.030;7.110;2022-10-17T10:19:48;6.30;;;3.70;;
41653;SDS011;30790;52.030;7.110;2022-10-17T10:22:20;12.85;;;3.60;;
41653;SDS011;30790;52.030;7.110;2022-10-17T10:25:05;15.05;;;4.55;;
41653;SDS011;30790;52.030;7.110;2022-10-17T10:27:42;11.48;;;3.38;;
41653;SDS011;30790;52.030;7.110;2022-10-17T10:30:16;17.27;;;4.10;;
41653;SDS011;30790;52.030;7.110;2022-10-17T10:32:44;13.73;;;3.95;;
41653;SDS011;30790;52.030;7.110;2022-10-17T10:37:45;17.40;;;4.28;;
41653;SDS011;30790;52.030;7.110;2022-10-17T10:40:15;23.75;;;4.40;;
41653;SDS011;30790;52.030;7.110;2022-10-17T10:42:45;12.73;;;4.75;;
41653;SDS011;30790;52.030;7.110;2022-10-17T10:45:14;11.30;;;4.55;;
41653;SDS011;30790;52.030;7.110;2022-10-17T10:47:53;17.77;;;3.53;;
41653;SDS011;30790;52.030;7.110;2022-10-17T10:50:23;18.83;;;4.63;;
41653;SDS011;30790;52.030;7.110;2022-10-17T10:55:51;13.20;;;4.47;;
41653;SDS011;30790;52.030;7.110;2022-10-17T10:58:24;14.70;;;4.00;;
41653;SDS011;30790;52.030;7.110;2022-10-17T11:00:55;13.82;;;4.05;;
41653;SDS011;30790;52.030;7.110;2022-10-17T11:03:29;14.93;;;4.00;;
41653;SDS011;30790;52.030;7.110;2022-10-17T11:06:01;10.63;;;3.65;;
41653;SDS011;30790;52.030;7.110;2022-10-17T11:11:15;8.73;;;3.63;;
41653;SDS011;30790;52.030;7.110;2022-10-17T11:13:50;9.38;;;3.92;;
41653;SDS011;30790;52.030;7.110;2022-10-17T11:19:24;20.55;;;4.25;;
41653;SDS011;30790;52.030;7.110;2022-10-17T11:27:35;13.70;;;3.70;;
41653;SDS011;30790;52.030;7.110;2022-10-17T11:30:01;13.00;;;3.43;;
41653;SDS011;30790;52.030;7.110;2022-10-17T11:32:30;12.88;;;3.45;;
41653;SDS011;30790;52.030;7.110;2022-10-17T11:35:04;14.10;;;3.58;;
41653;SDS011;30790;52.030;7.110;2022-10-17T11:37:39;17.02;;;4.35;;
41653;SDS011;30790;52.030;7.110;2022-10-17T11:40:20;8.95;;;3.45;;
41653;SDS011;30790;52.030;7.110;2022-10-17T11:43:04;7.82;;;3.65;;
41653;SDS011;30790;52.030;7.110;2022-10-17T11:45:39;8.75;;;3.55;;
41653;SDS011;30790;52.030;7.110;2022-10-17T11:48:12;8.90;;;3.88;;
41653;SDS011;30790;52.030;7.110;2022-10-17T11:50:46;9.05;;;3.53;;
41653;SDS011;30790;52.030;7.110;2022-10-17T11:53:22;7.20;;;3.33;;
41653;SDS011;30790;52.030;7.110;2022-10-17T11:55:51;11.52;;;3.83;;
41653;SDS011;30790;52.030;7.110;2022-10-17T12:01:06;7.85;;;2.72;;
41653;SDS011;30790;52.030;7.110;2022-10-17T12:09:17;9.27;;;3.78;;
41653;SDS011;30790;52.030;7.110;2022-10-17T12:11:51;5.47;;;2.78;;
41653;SDS011;30790;52.030;7.110;2022-10-17T12:14:33;12.70;;;3.97;;
41653;SDS011;30790;52.030;7.110;2022-10-17T12:22:49;5.93;;;3.33;;
41653;SDS011;30790;52.030;7.110;2022-10-17T12:25:21;4.60;;;2.88;;
41653;SDS011;30790;52.030;7.110;2022-10-17T12:28:02;6.68;;;3.50;;
41653;SDS011;30790;52.030;7.110;2022-10-17T12:30:37;9.02;;;3.47;;
41653;SDS011;30790;52.030;7.110;2022-10-17T12:33:18;11.35;;;3.67;;
41653;SDS011;30790;52.030;7.110;2022-10-17T12:38:43;5.55;;;3.30;;
41653;SDS011;30790;52.030;7.110;2022-10-17T12:41:10;8.10;;;3.25;;
41653;SDS011;30790;52.030;7.110;2022-10-17T12:43:36;5.93;;;2.90;;
41653;SDS011;30790;52.030;7.110;2022-10-17T12:46:08;8.00;;;3.83;;
41653;SDS011;30790;52.030;7.110;2022-10-17T12:51:08;7.13;;;3.33;;
41653;SDS011;30790;52.030;7.110;2022-10-17T12:56:28;12.23;;;3.70;;
41653;SDS011;30790;52.030;7.110;2022-10-17T12:59:05;10.68;;;3.45;;
41653;SDS011;30790;52.030;7.110;2022-10-17T13:01:37;10.40;;;3.42;;
41653;SDS011;30790;52.030;7.110;2022-10-17T13:04:03;5.00;;;3.03;;
41653;SDS011;30790;52.030;7.110;2022-10-17T13:06:31;10.35;;;3.50;;
41653;SDS011;30790;52.030;7.110;2022-10-17T13:09:04;8.05;;;3.08;;
41653;SDS011;30790;52.030;7.110;2022-10-17T13:11:33;12.85;;;3.85;;
41653;SDS011;30790;52.030;7.110;2022-10-17T13:14:02;29.75;;;4.80;;
41653;SDS011;30790;52.030;7.110;2022-10-17T13:16:36;14.32;;;4.15;;
41653;SDS011;30790;52.030;7.110;2022-10-17T13:19:13;38.38;;;4.97;;
41653;SDS011;30790;52.030;7.110;2022-10-17T13:22:01;25.42;;;4.53;;
41653;SDS011;30790;52.030;7.110;2022-10-17T13:24:37;12.30;;;4.05;;
41653;SDS011;30790;52.030;7.110;2022-10-17T13:27:04;20.05;;;4.40;;
41653;SDS011;30790;52.030;7.110;2022-10-17T13:29:45;18.90;;;4.05;;
41653;SDS011;30790;52.030;7.110;2022-10-17T13:32:10;13.48;;;3.63;;
41653;SDS011;30790;52.030;7.110;2022-10-17T13:34:36;13.05;;;3.70;;
41653;SDS011;30790;52.030;7.110;2022-10-17T13:37:05;9.43;;;3.70;;
41653;SDS011;30790;52.030;7.110;2022-10-17T13:39:36;9.48;;;4.00;;
41653;SDS011;30790;52.030;7.110;2022-10-17T13:42:04;17.15;;;3.65;;
41653;SDS011;30790;52.030;7.110;2022-10-17T13:44:32;16.33;;;4.10;;
41653;SDS011;30790;52.030;7.110;2022-10-17T13:46:59;20.08;;;4.80;;
41653;SDS011;30790;52.030;7.110;2022-10-17T13:52:06;19.08;;;3.60;;
41653;SDS011;30790;52.030;7.110;2022-10-17T13:54:42;25.92;;;4.63;;
41653;SDS011;30790;52.030;7.110;2022-10-17T13:59:52;14.73;;;4.28;;
41653;SDS011;30790;52.030;7.110;2022-10-17T14:02:30;12.43;;;4.13;;
41653;SDS011;30790;52.030;7.110;2022-10-17T14:07:37;14.30;;;3.83;;
41653;SDS011;30790;52.030;7.110;2022-10-17T14:10:05;42.15;;;5.97;;
41653;SDS011;30790;52.030;7.110;2022-10-17T14:12:43;23.13;;;4.80;;
41653;SDS011;30790;52.030;7.110;2022-10-17T14:15:08;31.92;;;5.90;;
41653;SDS011;30790;52.030;7.110;2022-10-17T14:17:38;24.67;;;5.18;;
41653;SDS011;30790;52.030;7.110;2022-10-17T14:20:04;18.90;;;4.90;;
41653;SDS011;30790;52.030;7.110;2022-10-17T14:22:35;24.17;;;4.57;;
41653;SDS011;30790;52.030;7.110;2022-10-17T14:25:01;21.17;;;4.57;;
41653;SDS011;30790;52.030;7.110;2022-10-17T14:27:51;19.95;;;4.70;;
41653;SDS011;30790;52.030;7.110;2022-10-17T14:32:49;15.55;;;4.28;;
41653;SDS011;30790;52.030;7.110;2022-10-17T14:35:18;16.02;;;3.95;;
41653;SDS011;30790;52.030;7.110;2022-10-17T14:37:44;18.42;;;4.70;;
41653;SDS011;30790;52.030;7.110;2022-10-17T14:40:15;19.42;;;4.55;;
41653;SDS011;30790;52.030;7.110;2022-10-17T14:42:47;15.05;;;3.47;;
41653;SDS011;30790;52.030;7.110;2022-10-17T14:45:19;21.73;;;3.90;;
41653;SDS011;30790;52.030;7.110;2022-10-17T14:47:50;17.05;;;3.70;;
41653;SDS011;30790;52.030;7.110;2022-10-17T14:50:21;16.23;;;4.20;;
41653;SDS011;30790;52.030;7.110;2022-10-17T14:52:57;21.20;;;4.38;;
41653;SDS011;30790;52.030;7.110;2022-10-17T14:55:54;16.65;;;4.45;;
41653;SDS011;30790;52.030;7.110;2022-10-17T14:58:23;12.65;;;4.43;;
41653;SDS011;30790;52.030;7.110;2022-10-17T15:00:51;21.48;;;4.28;;
41653;SDS011;30790;52.030;7.110;2022-10-17T15:03:16;13.27;;;4.10;;
41653;SDS011;30790;52.030;7.110;2022-10-17T15:05:43;18.17;;;4.20;;
41653;SDS011;30790;52.030;7.110;2022-10-17T15:08:11;12.68;;;4.45;;
41653;SDS011;30790;52.030;7.110;2022-10-17T15:10:39;17.23;;;4.47;;
41653;SDS011;30790;52.030;7.110;2022-10-17T15:13:07;15.52;;;4.18;;
41653;SDS011;30790;52.030;7.110;2022-10-17T15:15:34;12.45;;;3.78;;
41653;SDS011;30790;52.030;7.110;2022-10-17T15:18:00;12.55;;;4.13;;
41653;SDS011;30790;52.030;7.110;2022-10-17T15:20:26;12.57;;;4.38;;
41653;SDS011;30790;52.030;7.110;2022-10-17T15:22:54;11.73;;;3.58;;
41653;SDS011;30790;52.030;7.110;2022-10-17T15:25:21;19.25;;;4.57;;
41653;SDS011;30790;52.030;7.110;2022-10-17T15:27:47;9.82;;;4.07;;
41653;SDS011;30790;52.030;7.110;2022-10-17T15:30:17;13.13;;;4.13;;
41653;SDS011;30790;52.030;7.110;2022-10-17T15:35:14;12.68;;;4.20;;
41653;SDS011;30790;52.030;7.110;2022-10-17T15:37:40;11.18;;;4.72;;
41653;SDS011;30790;52.030;7.110;2022-10-17T15:40:08;13.98;;;3.72;;
41653;SDS011;30790;52.030;7.110;2022-10-17T15:42:38;10.13;;;3.58;;
41653;SDS011;30790;52.030;7.110;2022-10-17T15:45:03;15.50;;;3.47;;
41653;SDS011;30790;52.030;7.110;2022-10-17T15:47:29;11.23;;;3.55;;
41653;SDS011;30790;52.030;7.110;2022-10-17T15:49:59;13.65;;;3.55;;
41653;SDS011;30790;52.030;7.110;2022-10-17T15:52:25;11.40;;;3.80;;
41653;SDS011;30790;52.030;7.110;2022-10-17T15:54:51;9.65;;;3.80;;
41653;SDS011;30790;52.030;7.110;2022-10-17T15:57:27;8.45;;;3.42;;
41653;SDS011;30790;52.030;7.110;2022-10-17T15:59:54;13.63;;;3.92;;
41653;SDS011;30790;52.030;7.110;2022-10-17T16:02:22;9.60;;;3.58;;
41653;SDS011;30790;52.030;7.110;2022-10-17T16:04:48;25.13;;;4.53;;
41653;SDS011;30790;52.030;7.110;2022-10-17T16:07:14;13.80;;;4.38;;
41653;SDS011;30790;52.030;7.110;2022-10-17T16:09:39;8.55;;;3.20;;
41653;SDS011;30790;52.030;7.110;2022-10-17T16:12:10;12.88;;;4.32;;
41653;SDS011;30790;52.030;7.110;2022-10-17T16:14:41;15.55;;;4.35;;
41653;SDS011;30790;52.030;7.110;2022-10-17T16:17:08;10.00;;;3.90;;
41653;SDS011;30790;52.030;7.110;2022-10-17T16:19:36;8.43;;;3.90;;
41653;SDS011;30790;52.030;7.110;2022-10-17T16:22:02;10.32;;;3.78;;
41653;SDS011;30790;52.030;7.110;2022-10-17T16:24:28;7.65;;;3.85;;
41653;SDS011;30790;52.030;7.110;2022-10-17T16:26:53;11.38;;;3.53;;
41653;SDS011;30790;52.030;7.110;2022-10-17T16:29:18;13.77;;;3.47;;
41653;SDS011;30790;52.030;7.110;2022-10-17T16:31:44;13.00;;;4.40;;
41653;SDS011;30790;52.030;7.110;2022-10-17T16:34:11;8.63;;;3.97;;
41653;SDS011;30790;52.030;7.110;2022-10-17T16:36:38;13.77;;;4.07;;